Time;durP1;ratioP1;P1;durP2;ratioP2;P2;SDS_P1;SDS_P2;PMS_P1;PMS_P2;Temp;Humidity;BMP_temperature;BMP_pressure;BME280_temperature;BME280_humidity;BME280_pressure;Samples;Min_cycle;Max_cycle;Signal;HPM_P1;HPM_P2
2023/03/03 00:00:24;;;;;;;52.00;25.00;;;4.20;1.00;;;;;;5008126;28;20843;-72
2023/03/03 00:02:49;;;;;;;48.07;25.90;;;4.20;1.00;;;;;;5008394;28;20186;-71
2023/03/03 00:05:17;;;;;;;50.50;25.10;;;4.70;1.00;;;;;;5009971;28;20309;-72
2023/03/03 00:07:43;;;;;;;48.70;25.50;;;4.10;1.00;;;;;;5008200;28;20272;-71
2023/03/03 00:10:10;;;;;;;49.07;26.03;;;4.60;1.00;;;;;;5008801;28;20457;-72
2023/03/03 00:12:46;;;;;;;46.60;24.67;;;4.10;1.00;;;;;;5007046;28;20935;-71
2023/03/03 00:15:21;;;;;;;50.40;25.50;;;4.60;1.00;;;;;;5003515;28;20426;-72
2023/03/03 00:17:47;;;;;;;53.87;24.17;;;4.20;1.00;;;;;;5006880;28;20464;-71
2023/03/03 00:20:26;;;;;;;45.90;25.23;;;4.10;1.00;;;;;;5009693;28;20453;-72
2023/03/03 00:22:51;;;;;;;45.63;24.27;;;4.20;1.00;;;;;;5006839;28;20437;-71
2023/03/03 00:25:33;;;;;;;41.57;23.43;;;3.90;1.00;;;;;;5009663;28;20433;-72
2023/03/03 00:28:14;;;;;;;43.57;24.07;;;3.90;1.00;;;;;;5008282;28;20183;-71
2023/03/03 00:30:39;;;;;;;49.83;25.77;;;3.80;1.00;;;;;;5005929;28;21056;-71
2023/03/03 00:33:34;;;;;;;51.73;24.60;;;3.80;1.00;;;;;;5008383;28;20441;-72
2023/03/03 00:36:27;;;;;;;45.00;24.53;;;3.70;1.00;;;;;;5009192;28;20608;-71
2023/03/03 00:38:55;;;;;;;42.20;22.13;;;3.70;1.00;;;;;;5007201;28;21014;-72
2023/03/03 00:41:26;;;;;;;45.27;24.30;;;3.60;1.00;;;;;;5007600;28;20465;-71
2023/03/03 00:43:52;;;;;;;41.47;23.03;;;3.70;1.00;;;;;;5007664;28;20943;-72
2023/03/03 00:46:20;;;;;;;46.83;23.57;;;3.70;1.00;;;;;;4991318;28;20434;-72
2023/03/03 00:48:47;;;;;;;45.27;24.00;;;3.80;1.00;;;;;;5008753;28;20524;-71
2023/03/03 00:51:21;;;;;;;45.20;23.50;;;3.40;1.00;;;;;;5008302;28;20519;-71
2023/03/03 00:53:47;;;;;;;47.20;25.47;;;3.30;1.00;;;;;;5005600;28;20429;-71
2023/03/03 00:56:13;;;;;;;46.90;24.20;;;3.30;1.00;;;;;;5006869;28;20449;-71
2023/03/03 00:58:38;;;;;;;45.53;23.70;;;3.20;1.00;;;;;;5008617;28;20205;-71
2023/03/03 01:01:04;;;;;;;48.37;23.57;;;3.20;1.00;;;;;;5006726;28;20573;-71
2023/03/03 01:03:30;;;;;;;49.13;24.90;;;3.20;1.00;;;;;;5006828;28;20209;-71
2023/03/03 01:05:55;;;;;;;56.60;25.67;;;3.20;1.00;;;;;;5008987;28;20194;-71
2023/03/03 01:08:21;;;;;;;45.20;23.13;;;3.10;1.00;;;;;;5005068;28;20564;-71
2023/03/03 01:10:53;;;;;;;46.47;23.27;;;3.00;1.00;;;;;;4995146;28;20221;-71
2023/03/03 01:13:22;;;;;;;45.27;22.23;;;3.00;1.00;;;;;;5011706;28;20449;-71
2023/03/03 01:15:48;;;;;;;46.33;23.70;;;3.40;1.00;;;;;;5010927;28;20828;-71
2023/03/03 01:18:14;;;;;;;44.97;24.00;;;2.90;1.00;;;;;;5012713;28;20834;-71
2023/03/03 01:20:40;;;;;;;45.67;23.57;;;3.20;1.00;;;;;;5012115;28;20465;-72
2023/03/03 01:23:06;;;;;;;49.23;24.97;;;3.30;1.00;;;;;;5011793;28;21163;-71
2023/03/03 01:25:32;;;;;;;48.47;24.77;;;2.80;1.00;;;;;;5012102;28;20451;-71
2023/03/03 01:27:57;;;;;;;46.77;23.47;;;3.20;1.00;;;;;;5011339;28;20190;-71
2023/03/03 01:30:24;;;;;;;49.17;23.33;;;2.70;1.00;;;;;;5005448;28;20211;-72
2023/03/03 01:32:50;;;;;;;42.87;22.63;;;2.70;1.00;;;;;;5009295;28;20264;-71
2023/03/03 01:35:16;;;;;;;44.60;23.50;;;3.10;1.00;;;;;;5012470;28;20445;-71
2023/03/03 01:37:42;;;;;;;44.60;23.30;;;2.60;1.00;;;;;;4993916;28;20500;-71
2023/03/03 01:40:15;;;;;;;46.90;25.13;;;2.60;1.00;;;;;;5011194;28;20289;-71
2023/03/03 01:42:41;;;;;;;48.07;23.60;;;2.60;1.00;;;;;;5010977;28;20534;-71
2023/03/03 01:45:17;;;;;;;47.90;24.77;;;2.70;1.00;;;;;;5010061;28;20515;-71
2023/03/03 01:47:50;;;;;;;44.93;24.53;;;2.60;1.00;;;;;;5007042;28;20297;-71
2023/03/03 01:50:26;;;;;;;47.47;23.60;;;2.60;1.00;;;;;;5012394;28;20456;-71
2023/03/03 01:52:52;;;;;;;46.37;24.23;;;2.60;1.00;;;;;;5009920;28;20508;-71
2023/03/03 01:55:22;;;;;;;44.90;23.63;;;2.60;1.00;;;;;;5012469;28;20991;-71
2023/03/03 01:58:23;;;;;;;49.97;25.03;;;3.00;1.00;;;;;;5011131;28;20206;-71
2023/03/03 02:00:57;;;;;;;47.73;24.00;;;2.60;1.00;;;;;;5000595;28;20461;-71
2023/03/03 02:03:23;;;;;;;46.93;25.40;;;2.60;1.00;;;;;;5005374;28;20459;-71
2023/03/03 02:05:51;;;;;;;48.53;24.97;;;2.80;1.00;;;;;;5007932;28;20483;-71
2023/03/03 02:08:20;;;;;;;47.17;25.20;;;2.80;1.00;;;;;;5008170;28;20540;-71
2023/03/03 02:10:47;;;;;;;47.37;24.90;;;2.40;1.00;;;;;;5011273;28;20487;-71
2023/03/03 02:13:13;;;;;;;50.70;25.07;;;2.30;1.00;;;;;;4993417;28;20460;-71
2023/03/03 02:15:39;;;;;;;49.17;25.30;;;2.30;1.00;;;;;;5012268;28;20424;-71
2023/03/03 02:18:09;;;;;;;46.20;24.23;;;2.20;1.00;;;;;;4993230;28;20206;-71
2023/03/03 02:20:54;;;;;;;47.73;24.80;;;2.20;1.00;;;;;;5008454;28;20203;-71
2023/03/03 02:23:42;;;;;;;45.97;22.63;;;2.20;1.00;;;;;;5005175;28;20429;-71
2023/03/03 02:26:07;;;;;;;48.73;25.23;;;2.10;1.00;;;;;;5010695;28;20434;-71
2023/03/03 02:28:35;;;;;;;50.70;24.47;;;2.10;1.00;;;;;;5009594;28;20445;-71
2023/03/03 02:31:02;;;;;;;45.10;23.87;;;2.60;1.00;;;;;;5010420;28;20754;-71
2023/03/03 02:33:28;;;;;;;52.33;25.03;;;2.10;1.00;;;;;;5009461;28;20480;-71
2023/03/03 02:35:54;;;;;;;49.47;25.00;;;2.90;1.00;;;;;;5008381;28;20499;-71
2023/03/03 02:38:32;;;;;;;50.73;25.80;;;2.00;1.00;;;;;;5010487;28;20500;-71
2023/03/03 02:41:31;;;;;;;49.70;24.70;;;1.90;1.00;;;;;;5010950;28;20453;-71
2023/03/03 02:44:27;;;;;;;48.33;24.10;;;1.80;1.00;;;;;;5008774;28;20448;-71
2023/03/03 02:46:54;;;;;;;46.83;24.10;;;1.80;1.00;;;;;;5008930;28;20520;-71
2023/03/03 02:49:22;;;;;;;48.87;22.00;;;1.70;1.00;;;;;;5011268;28;20464;-71
2023/03/03 02:51:47;;;;;;;44.30;23.60;;;1.70;1.00;;;;;;4996685;28;20454;-71
2023/03/03 02:54:16;;;;;;;44.30;22.80;;;1.70;1.00;;;;;;4992919;28;20444;-71
2023/03/03 02:56:42;;;;;;;49.97;24.80;;;1.70;1.00;;;;;;5010550;28;20238;-71
2023/03/03 02:59:08;;;;;;;49.70;23.90;;;2.00;1.00;;;;;;5011065;28;20472;-71
2023/03/03 03:01:37;;;;;;;48.33;25.10;;;1.60;1.00;;;;;;5010133;28;20468;-71
2023/03/03 03:04:11;;;;;;;50.23;25.30;;;1.90;1.00;;;;;;5009566;28;20576;-71
2023/03/03 03:06:37;;;;;;;45.10;23.60;;;1.50;1.00;;;;;;5009776;28;20471;-72
2023/03/03 03:09:04;;;;;;;49.60;24.03;;;1.30;1.00;;;;;;5009964;28;20461;-71
2023/03/03 03:11:29;;;;;;;52.03;24.30;;;1.20;1.00;;;;;;5009573;28;20464;-71
2023/03/03 03:13:55;;;;;;;48.40;25.00;;;1.10;1.00;;;;;;5010057;28;20426;-71
2023/03/03 03:16:20;;;;;;;54.53;26.07;;;1.00;1.00;;;;;;4992510;28;20688;-71
2023/03/03 03:18:46;;;;;;;60.20;26.87;;;0.90;1.00;;;;;;5009865;28;20206;-71
2023/03/03 03:21:12;;;;;;;56.07;25.40;;;1.00;1.00;;;;;;5009837;28;20217;-71
2023/03/03 03:23:39;;;;;;;48.50;24.30;;;1.00;1.00;;;;;;5010395;28;20186;-71
2023/03/03 03:26:05;;;;;;;48.07;23.67;;;1.00;1.00;;;;;;5008099;28;20433;-71
2023/03/03 03:28:31;;;;;;;58.77;24.97;;;1.00;1.00;;;;;;5009099;28;20587;-71
2023/03/03 03:30:57;;;;;;;48.90;25.30;;;1.10;1.00;;;;;;5009034;28;20902;-72
2023/03/03 03:33:23;;;;;;;58.53;24.67;;;1.50;1.00;;;;;;5008522;28;20190;-71
2023/03/03 03:35:49;;;;;;;47.07;23.40;;;1.00;1.00;;;;;;5007815;28;20214;-71
2023/03/03 03:38:15;;;;;;;50.60;25.27;;;1.00;1.00;;;;;;5006805;28;20479;-71
2023/03/03 03:40:41;;;;;;;52.90;24.10;;;1.30;1.00;;;;;;5010195;28;20831;-71
2023/03/03 03:43:07;;;;;;;51.23;23.00;;;0.90;1.00;;;;;;5009933;28;20436;-71
2023/03/03 03:45:33;;;;;;;55.10;24.83;;;0.80;1.00;;;;;;4990923;28;20804;-71
2023/03/03 03:47:58;;;;;;;48.50;25.37;;;0.70;1.00;;;;;;5009890;28;20182;-71
2023/03/03 03:50:24;;;;;;;55.50;23.63;;;0.70;1.00;;;;;;5007928;28;20218;-71
2023/03/03 03:52:49;;;;;;;51.87;22.60;;;0.70;1.00;;;;;;5009519;28;20198;-71
2023/03/03 03:55:15;;;;;;;45.13;23.57;;;0.70;1.00;;;;;;5006781;28;20209;-71
2023/03/03 03:57:41;;;;;;;50.43;24.37;;;0.80;1.00;;;;;;5008692;28;20637;-71
2023/03/03 04:00:08;;;;;;;52.33;24.13;;;0.70;1.00;;;;;;5008691;28;20289;-71
2023/03/03 04:02:34;;;;;;;46.70;22.60;;;0.70;1.00;;;;;;5008383;28;20495;-71
2023/03/03 04:05:00;;;;;;;48.87;24.63;;;0.70;1.00;;;;;;4991995;28;20425;-71
2023/03/03 04:07:26;;;;;;;55.60;25.23;;;1.00;1.00;;;;;;5005922;28;20862;-71
2023/03/03 04:09:51;;;;;;;52.70;24.50;;;0.60;1.00;;;;;;5008222;28;20757;-71
2023/03/03 04:12:17;;;;;;;50.90;23.90;;;0.50;1.00;;;;;;5009906;28;20182;-71
2023/03/03 04:14:42;;;;;;;54.80;24.97;;;0.50;1.00;;;;;;5008604;28;20673;-71
2023/03/03 04:17:16;;;;;;;46.53;22.93;;;0.50;1.00;;;;;;5007954;28;20233;-71
2023/03/03 04:19:42;;;;;;;43.67;23.13;;;0.50;1.00;;;;;;4997374;28;20201;-68
2023/03/03 04:22:07;;;;;;;51.63;23.57;;;0.90;1.00;;;;;;5007719;28;20425;-69
2023/03/03 04:24:33;;;;;;;47.70;24.30;;;0.50;1.00;;;;;;5009219;28;20615;-69
2023/03/03 04:26:59;;;;;;;47.53;23.10;;;0.90;1.00;;;;;;5006918;28;20181;-68
2023/03/03 04:29:25;;;;;;;41.90;21.60;;;0.40;1.00;;;;;;5009498;28;20186;-69
2023/03/03 04:31:51;;;;;;;45.87;22.37;;;0.80;1.00;;;;;;5008107;28;20951;-69
2023/03/03 04:34:16;;;;;;;50.63;25.53;;;0.40;1.00;;;;;;5008549;28;20191;-72
2023/03/03 04:36:41;;;;;;;46.03;23.63;;;0.70;1.00;;;;;;4990711;28;20561;-71
2023/03/03 04:39:07;;;;;;;47.33;24.87;;;0.40;1.00;;;;;;5008140;28;20221;-71
2023/03/03 04:41:32;;;;;;;44.50;22.90;;;0.90;1.00;;;;;;5008721;28;20630;-69
2023/03/03 04:43:58;;;;;;;48.70;23.27;;;0.40;1.00;;;;;;5012842;28;20182;-69
2023/03/03 04:46:23;;;;;;;46.43;22.47;;;0.40;1.00;;;;;;5015211;28;20214;-69
2023/03/03 04:48:49;;;;;;;42.70;22.10;;;0.90;1.00;;;;;;5015409;28;20713;-69
2023/03/03 04:51:15;;;;;;;43.60;22.30;;;1.80;1.00;;;;;;5015076;28;20758;-69
2023/03/03 04:53:41;;;;;;;45.80;23.03;;;0.50;1.00;;;;;;5015161;28;20221;-69
2023/03/03 04:56:07;;;;;;;45.97;22.37;;;0.50;1.00;;;;;;4997905;28;20936;-69
2023/03/03 04:58:32;;;;;;;48.27;23.13;;;0.50;1.00;;;;;;5013899;28;20202;-70
2023/03/03 05:00:58;;;;;;;46.50;21.83;;;0.40;1.00;;;;;;4997620;28;20228;-69
2023/03/03 05:03:25;;;;;;;44.30;22.83;;;;;;;;;;5014387;28;20186;-70
2023/03/03 05:05:51;;;;;;;53.03;24.13;;;0.40;1.00;;;;;;5015172;28;20185;-69
2023/03/03 05:08:16;;;;;;;49.03;21.90;;;0.40;1.00;;;;;;5012095;28;20437;-69
2023/03/03 05:10:43;;;;;;;43.77;23.40;;;0.80;1.00;;;;;;4998124;28;20209;-69
2023/03/03 05:13:08;;;;;;;41.90;22.40;;;0.70;1.00;;;;;;5012000;28;20193;-69
2023/03/03 05:15:34;;;;;;;51.57;22.27;;;0.70;1.00;;;;;;4993538;28;20811;-69
2023/03/03 05:18:00;;;;;;;44.67;22.40;;;0.70;1.00;;;;;;5013776;28;20198;-69
2023/03/03 05:20:25;;;;;;;51.60;24.40;;;0.30;1.00;;;;;;4997709;28;20281;-69
2023/03/03 05:22:51;;;;;;;48.57;25.53;;;0.30;1.00;;;;;;5014325;28;20190;-69
2023/03/03 05:25:17;;;;;;;56.10;25.43;;;0.20;1.00;;;;;;5014900;28;20664;-69
2023/03/03 05:27:43;;;;;;;53.83;24.27;;;0.30;1.00;;;;;;5014714;28;20192;-69
2023/03/03 05:30:10;;;;;;;51.77;24.80;;;0.40;1.00;;;;;;5013589;28;20213;-69
2023/03/03 05:32:36;;;;;;;47.63;24.77;;;0.30;1.00;;;;;;5014235;28;20193;-69
2023/03/03 05:35:02;;;;;;;56.43;26.43;;;0.40;1.00;;;;;;5013942;28;20460;-69
2023/03/03 05:37:28;;;;;;;51.27;26.03;;;0.40;1.00;;;;;;5013222;28;20472;-69
2023/03/03 05:39:53;;;;;;;47.60;23.80;;;0.30;1.00;;;;;;5014735;28;20433;-71
2023/03/03 05:42:19;;;;;;;48.03;22.77;;;0.30;1.00;;;;;;5014418;28;20198;-71
2023/03/03 05:44:44;;;;;;;44.17;23.30;;;0.30;1.00;;;;;;5015263;28;20182;-70
2023/03/03 05:47:10;;;;;;;47.23;21.90;;;0.30;1.00;;;;;;5014159;28;20205;-69
2023/03/03 05:49:35;;;;;;;47.87;22.50;;;0.30;1.00;;;;;;5015425;28;20178;-69
2023/03/03 05:52:01;;;;;;;41.30;21.43;;;0.20;1.00;;;;;;5012449;28;20305;-71
2023/03/03 05:54:27;;;;;;;40.10;21.50;;;0.10;1.00;;;;;;5009945;28;20218;-69
2023/03/03 05:56:52;;;;;;;44.73;20.93;;;0.10;1.00;;;;;;5010989;28;20190;-69
2023/03/03 05:59:18;;;;;;;47.20;25.03;;;0.50;1.00;;;;;;5011707;28;20688;-68
2023/03/03 06:01:44;;;;;;;45.30;22.47;;;0.40;1.00;;;;;;5011112;28;20198;-69
2023/03/03 06:04:09;;;;;;;45.33;21.80;;;0.50;1.00;;;;;;5009836;28;20441;-69
2023/03/03 06:06:35;;;;;;;41.73;19.97;;;0.50;1.00;;;;;;5011396;28;20222;-69
2023/03/03 06:09:02;;;;;;;45.77;21.20;;;0.10;1.00;;;;;;5009930;28;20190;-69
2023/03/03 06:11:27;;;;;;;40.83;19.67;;;0.10;1.00;;;;;;5011803;28;20457;-71
2023/03/03 06:13:53;;;;;;;48.10;21.50;;;0.40;1.00;;;;;;5011897;28;20433;-71
2023/03/03 06:16:19;;;;;;;38.93;20.20;;;0.10;1.00;;;;;;5010788;28;20206;-69
2023/03/03 06:18:44;;;;;;;44.13;21.93;;;0.00;1.00;;;;;;5011305;28;20202;-69
2023/03/03 06:21:10;;;;;;;42.13;22.87;;;0.10;1.00;;;;;;4992833;28;20472;-69
2023/03/03 06:23:35;;;;;;;44.70;20.70;;;0.30;1.00;;;;;;5009599;28;20174;-69
2023/03/03 06:26:01;;;;;;;55.47;21.30;;;0.20;1.00;;;;;;5010645;28;20598;-69
2023/03/03 06:28:27;;;;;;;44.70;21.90;;;0.20;1.00;;;;;;5010023;28;20214;-69
2023/03/03 06:30:53;;;;;;;43.40;20.20;;;0.50;1.00;;;;;;5011252;28;20264;-69
2023/03/03 06:33:19;;;;;;;44.10;20.13;;;0.50;1.00;;;;;;5009791;28;20186;-69
2023/03/03 06:35:52;;;;;;;42.13;19.30;;;0.20;1.00;;;;;;5011099;28;20797;-69
2023/03/03 06:38:18;;;;;;;41.37;20.07;;;0.20;1.00;;;;;;5009211;28;20309;-69
2023/03/03 06:40:44;;;;;;;38.83;19.03;;;0.20;1.00;;;;;;5011232;28;20500;-69
2023/03/03 06:43:10;;;;;;;39.33;19.10;;;0.20;1.00;;;;;;5009593;28;20536;-70
2023/03/03 06:45:36;;;;;;;46.07;18.90;;;0.20;1.00;;;;;;5007100;28;21237;-70
2023/03/03 06:48:01;;;;;;;33.63;18.77;;;0.30;1.00;;;;;;5008804;28;20265;-68
2023/03/03 06:50:27;;;;;;;35.40;19.77;;;0.30;1.00;;;;;;5010080;28;20292;-70
2023/03/03 06:53:11;;;;;;;37.90;20.57;;;0.40;1.00;;;;;;4991367;28;20174;-69
2023/03/03 06:55:37;;;;;;;36.40;19.03;;;0.60;1.00;;;;;;5009873;28;20552;-70
2023/03/03 06:58:09;;;;;;;40.83;19.37;;;0.60;1.00;;;;;;5009216;28;20555;-69
2023/03/03 07:00:35;;;;;;;41.40;20.57;;;0.80;1.00;;;;;;5009517;28;20209;-69
2023/03/03 07:03:11;;;;;;;40.80;21.03;;;0.80;1.00;;;;;;5008640;28;20442;-69
2023/03/03 07:05:37;;;;;;;40.67;20.47;;;0.80;1.00;;;;;;5009940;28;20228;-71
2023/03/03 07:08:09;;;;;;;47.50;22.40;;;1.20;1.00;;;;;;5005718;28;20433;-71
2023/03/03 07:10:35;;;;;;;42.60;19.50;;;1.00;1.00;;;;;;5007805;28;20206;-69
2023/03/03 07:13:22;;;;;;;39.27;20.40;;;1.40;1.00;;;;;;5009674;28;20425;-69
2023/03/03 07:15:49;;;;;;;50.83;21.30;;;1.30;1.00;;;;;;5009977;28;20194;-69
2023/03/03 07:18:36;;;;;;;42.17;21.40;;;1.50;1.00;;;;;;4998416;28;20473;-72
2023/03/03 07:21:32;;;;;;;42.63;20.40;;;1.70;1.00;;;;;;4999826;28;20457;-73
2023/03/03 07:24:00;;;;;;;50.07;23.63;;;1.70;1.00;;;;;;5004270;28;20823;-70
2023/03/03 07:26:29;;;;;;;43.73;21.80;;;1.80;1.00;;;;;;5002666;28;20433;-70
2023/03/03 07:29:15;;;;;;;43.40;23.30;;;1.90;1.00;;;;;;5005742;28;20448;-70
2023/03/03 07:31:46;;;;;;;42.67;22.43;;;2.00;1.00;;;;;;5068499;22;20499;-69
2023/03/03 07:34:26;;;;;;;39.83;20.57;;;2.00;1.00;;;;;;5042736;28;20992;-70
2023/03/03 07:36:59;;;;;;;41.53;22.50;;;2.10;1.00;;;;;;5024629;28;20460;-69
2023/03/03 07:39:33;;;;;;;45.80;22.73;;;2.20;1.00;;;;;;5040177;28;20957;-71
2023/03/03 07:42:02;;;;;;;44.73;22.80;;;;;;;;;;5029329;28;20985;-70
2023/03/03 07:44:34;;;;;;;45.93;23.00;;;2.60;1.00;;;;;;5026003;28;20442;-72
2023/03/03 07:47:23;;;;;;;45.57;22.03;;;2.60;1.00;;;;;;5035689;28;20440;-72
2023/03/03 07:49:51;;;;;;;38.00;21.77;;;2.60;1.00;;;;;;5028134;28;20444;-72
2023/03/03 07:52:55;;;;;;;36.73;20.27;;;2.70;1.00;;;;;;5026654;28;20452;-72
2023/03/03 07:55:36;;;;;;;30.03;16.93;;;2.80;1.00;;;;;;5022168;28;20459;-72
2023/03/03 07:58:11;;;;;;;35.50;18.30;;;2.80;1.00;;;;;;5041065;28;20554;-68
2023/03/03 08:01:11;;;;;;;30.70;17.00;;;3.10;1.00;;;;;;5028394;28;20526;-73
2023/03/03 08:03:36;;;;;;;30.60;16.27;;;3.20;1.00;;;;;;5029320;28;20424;-73
2023/03/03 08:06:25;;;;;;;32.53;15.70;;;3.30;1.00;;;;;;5026067;28;20428;-70
2023/03/03 08:08:51;;;;;;;32.90;16.00;;;3.50;1.00;;;;;;5028137;28;20602;-72
2023/03/03 08:11:17;;;;;;;29.87;16.40;;;3.60;1.00;;;;;;5026530;28;20460;-73
2023/03/03 08:13:44;;;;;;;34.60;16.00;;;3.70;1.00;;;;;;5027698;28;20272;-72
2023/03/03 08:16:09;;;;;;;30.67;16.67;;;3.70;1.00;;;;;;5032280;28;20323;-72
2023/03/03 08:18:38;;;;;;;28.40;15.33;;;3.70;1.00;;;;;;5027364;28;20551;-73
2023/03/03 08:21:07;;;;;;;30.40;15.90;;;3.70;1.00;;;;;;5024455;28;20264;-72
2023/03/03 08:23:32;;;;;;;31.97;17.40;;;3.80;1.00;;;;;;5028643;28;20475;-72
2023/03/03 08:25:58;;;;;;;34.93;19.13;;;4.00;1.00;;;;;;5026936;28;20468;-73
2023/03/03 08:28:23;;;;;;;32.70;18.20;;;4.10;1.00;;;;;;5024045;28;20200;-73
2023/03/03 08:30:50;;;;;;;31.50;17.10;;;4.10;1.00;;;;;;5025738;28;20237;-73
2023/03/03 08:33:16;;;;;;;30.90;17.23;;;4.20;1.00;;;;;;5027679;28;20200;-72
2023/03/03 08:35:42;;;;;;;31.63;17.67;;;4.30;1.00;;;;;;5033181;28;20436;-73
2023/03/03 08:38:09;;;;;;;28.70;16.60;;;4.40;1.00;;;;;;5025007;28;20812;-72
2023/03/03 08:40:34;;;;;;;28.47;16.67;;;4.60;1.00;;;;;;5025905;28;20464;-73
2023/03/03 08:43:01;;;;;;;27.70;16.40;;;4.60;1.00;;;;;;5028175;28;20958;-74
2023/03/03 08:45:27;;;;;;;27.70;15.93;;;4.80;1.00;;;;;;5030249;28;20182;-73
2023/03/03 08:47:53;;;;;;;31.50;16.47;;;5.10;1.00;;;;;;5030262;28;20440;-73
2023/03/03 08:50:22;;;;;;;28.33;16.97;;;5.20;1.00;;;;;;5049546;28;20434;-73
2023/03/03 08:52:48;;;;;;;28.40;17.00;;;5.20;1.00;;;;;;5032038;28;20182;-73
2023/03/03 08:55:13;;;;;;;27.73;16.50;;;5.30;1.00;;;;;;5028061;28;20440;-73
2023/03/03 08:57:39;;;;;;;32.67;17.30;;;5.90;1.00;;;;;;5025908;28;21029;-73
2023/03/03 09:00:07;;;;;;;31.13;17.20;;;7.50;1.00;;;;;;5030816;28;20544;-70
2023/03/03 09:02:33;;;;;;;29.37;18.93;;;9.20;1.00;;;;;;5030389;28;20237;-73
2023/03/03 09:04:59;;;;;;;31.50;17.60;;;11.00;1.00;;;;;;5030295;28;20986;-73
2023/03/03 09:07:24;;;;;;;29.13;19.07;;;12.60;1.00;;;;;;5026846;28;20708;-74
2023/03/03 09:09:50;;;;;;;31.70;19.10;;;13.70;1.00;;;;;;5030451;28;20251;-73
2023/03/03 09:12:21;;;;;;;30.63;20.10;;;13.90;1.00;;;;;;5043641;28;20208;-74
2023/03/03 09:14:47;;;;;;;26.93;19.13;;;14.50;1.00;;;;;;5025839;28;20418;-72
2023/03/03 09:17:24;;;;;;;38.43;21.93;;;15.20;1.00;;;;;;5027189;28;20432;-73
2023/03/03 09:19:50;;;;;;;33.07;23.90;;;16.10;1.00;;;;;;5041699;28;20178;-75
2023/03/03 09:22:22;;;;;;;31.97;22.73;;;16.50;1.00;;;;;;5035009;28;20517;-74
2023/03/03 09:24:49;;;;;;;31.03;22.10;;;17.10;1.00;;;;;;5027378;28;20428;-74
2023/03/03 09:27:23;;;;;;;31.00;22.83;;;17.20;1.00;;;;;;5029759;28;20468;-74
2023/03/03 09:29:48;;;;;;;39.23;26.90;;;17.00;1.00;;;;;;5035810;28;20949;-74
2023/03/03 09:32:30;;;;;;;35.33;25.10;;;17.10;1.00;;;;;;5028760;28;20571;-75
2023/03/03 09:34:55;;;;;;;35.30;25.47;;;17.10;1.00;;;;;;5031522;28;20540;-73
2023/03/03 09:37:35;;;;;;;44.07;28.73;;;17.90;1.00;;;;;;5032725;28;20460;-71
2023/03/03 09:40:31;;;;;;;35.03;26.30;;;18.20;1.00;;;;;;5028059;28;20613;-71
2023/03/03 09:43:10;;;;;;;39.63;27.40;;;18.30;1.00;;;;;;5005814;28;20428;-72
2023/03/03 09:46:14;;;;;;;38.57;28.20;;;18.00;1.00;;;;;;5027674;28;20432;-72
2023/03/03 09:48:53;;;;;;;47.57;30.10;;;18.30;1.00;;;;;;5028716;28;20451;-71
2023/03/03 09:51:25;;;;;;;39.03;27.63;;;18.50;1.00;;;;;;5031458;28;20461;-72
2023/03/03 09:54:19;;;;;;;42.50;28.50;;;18.70;1.00;;;;;;5026887;28;20452;-72
2023/03/03 09:56:53;;;;;;;38.87;28.07;;;18.80;1.00;;;;;;5030172;28;20467;-72
2023/03/03 09:59:24;;;;;;;41.40;29.63;;;19.70;1.00;;;;;;5027970;28;20459;-71
2023/03/03 10:02:31;;;;;;;37.53;28.73;;;20.50;1.00;;;;;;5041120;28;20439;-72
2023/03/03 10:05:25;;;;;;;39.20;28.57;;;20.90;1.00;;;;;;5031382;28;20662;-72
2023/03/03 10:08:09;;;;;;;45.90;28.13;;;20.70;1.00;;;;;;5023871;28;20911;-72
2023/03/03 10:11:06;;;;;;;38.30;28.30;;;20.60;1.00;;;;;;5033815;28;20525;-71
2023/03/03 10:13:54;;;;;;;39.13;26.93;;;20.70;1.00;;;;;;5029142;28;20444;-72
2023/03/03 10:16:26;;;;;;;36.33;25.77;;;21.30;1.00;;;;;;5033961;28;20509;-73
2023/03/03 10:19:00;;;;;;;33.40;25.60;;;21.90;1.00;;;;;;5035956;28;20460;-72
2023/03/03 10:21:36;;;;;;;35.43;25.70;;;21.30;1.00;;;;;;5030838;28;20460;-72
2023/03/03 10:24:19;;;;;;;33.50;25.50;;;21.70;1.00;;;;;;5032107;28;20439;-72
2023/03/03 10:27:02;;;;;;;35.83;24.20;;;21.50;1.00;;;;;;5031825;28;20468;-72
2023/03/03 10:30:00;;;;;;;32.80;26.03;;;21.30;1.00;;;;;;5033993;28;20439;-71
2023/03/03 10:32:34;;;;;;;31.90;24.90;;;21.40;1.00;;;;;;5061319;28;21253;-72
2023/03/03 10:35:06;;;;;;;30.73;25.10;;;21.60;1.00;;;;;;5037843;28;20431;-72
2023/03/03 10:37:37;;;;;;;34.70;25.00;;;21.80;1.00;;;;;;5038477;28;20463;-72
2023/03/03 10:40:09;;;;;;;34.40;25.07;;;22.80;1.00;;;;;;5032368;28;20456;-72
2023/03/03 10:42:47;;;;;;;35.57;26.20;;;22.70;1.00;;;;;;5032646;28;20447;-72
2023/03/03 10:45:43;;;;;;;32.43;26.23;;;22.70;1.00;;;;;;5030161;28;20472;-72
2023/03/03 10:48:36;;;;;;;34.03;26.60;;;22.70;1.00;;;;;;5043310;28;20423;-73
2023/03/03 10:51:17;;;;;;;32.83;26.43;;;22.60;1.00;;;;;;5030204;28;20483;-72
2023/03/03 10:54:01;;;;;;;34.23;26.67;;;23.30;1.00;;;;;;5030611;28;20427;-72
2023/03/03 10:56:55;;;;;;;33.30;26.10;;;23.70;1.00;;;;;;5032388;28;20439;-72
2023/03/03 10:59:40;;;;;;;36.90;27.40;;;23.60;1.00;;;;;;5022591;28;20471;-72
2023/03/03 11:02:37;;;;;;;36.90;27.00;;;24.00;1.00;;;;;;5029219;28;20448;-72
2023/03/03 11:05:15;;;;;;;36.50;26.43;;;24.20;1.00;;;;;;5028982;28;20489;-73
2023/03/03 11:08:13;;;;;;;39.40;26.50;;;24.00;1.00;;;;;;5023141;28;20443;-72
2023/03/03 11:10:52;;;;;;;38.67;27.63;;;23.90;1.00;;;;;;5003203;28;20494;-73
2023/03/03 11:13:47;;;;;;;34.97;27.20;;;24.10;1.00;;;;;;5029392;28;20439;-71
2023/03/03 11:16:39;;;;;;;35.93;26.40;;;24.50;1.00;;;;;;5027006;28;20959;-71
2023/03/03 11:19:30;;;;;;;35.33;28.43;;;24.70;1.00;;;;;;5032448;28;20475;-72
2023/03/03 11:22:32;;;;;;;35.33;26.97;;;26.50;1.00;;;;;;5022539;28;20459;-73
2023/03/03 11:25:29;;;;;;;38.97;27.40;;;25.60;1.00;;;;;;5029579;28;20443;-73
2023/03/03 11:28:05;;;;;;;37.43;26.30;;;26.20;1.00;;;;;;5025860;28;20188;-72
2023/03/03 11:31:07;;;;;;;39.60;27.90;;;25.90;1.00;;;;;;5029304;28;20189;-70
2023/03/03 11:33:43;;;;;;;37.70;27.47;;;25.80;1.00;;;;;;5028452;28;21715;-72
2023/03/03 11:36:38;;;;;;;36.93;28.00;;;25.60;1.00;;;;;;5027088;28;20205;-73
2023/03/03 11:39:08;;;;;;;39.40;28.77;;;24.90;1.00;;;;;;5028343;28;20218;-74
2023/03/03 11:41:39;;;;;;;35.50;27.50;;;24.50;1.00;;;;;;5031692;28;20448;-72
2023/03/03 11:44:48;;;;;;;38.10;29.23;;;23.50;1.00;;;;;;5028794;28;20439;-73
2023/03/03 11:47:22;;;;;;;36.47;26.80;;;23.40;1.00;;;;;;5015023;28;20455;-72
2023/03/03 11:49:56;;;;;;;36.73;27.97;;;24.40;1.00;;;;;;5029514;28;20423;-72
2023/03/03 11:52:56;;;;;;;35.73;27.17;;;25.10;1.00;;;;;;5027374;28;20463;-72
2023/03/03 11:55:36;;;;;;;39.70;28.47;;;25.10;1.00;;;;;;5028417;28;20820;-73
2023/03/03 11:58:33;;;;;;;36.97;27.73;;;26.20;1.00;;;;;;5027326;28;20456;-70
2023/03/03 12:01:22;;;;;;;37.20;27.27;;;26.70;1.00;;;;;;5023069;28;20260;-73
2023/03/03 12:04:11;;;;;;;35.67;28.07;;;27.30;1.00;;;;;;5026053;28;20198;-73
2023/03/03 12:06:40;;;;;;;37.67;28.13;;;26.70;1.00;;;;;;5028174;28;20299;-72
2023/03/03 12:09:35;;;;;;;36.43;27.27;;;26.30;1.00;;;;;;5026458;28;20189;-73
2023/03/03 12:12:14;;;;;;;35.40;28.33;;;26.00;1.00;;;;;;5026545;28;20247;-73
2023/03/03 12:14:56;;;;;;;38.10;27.67;;;27.80;1.00;;;;;;5029014;28;20192;-74
2023/03/03 12:17:55;;;;;;;39.50;28.30;;;25.40;1.00;;;;;;5029025;28;20184;-73
2023/03/03 12:20:42;;;;;;;39.57;29.10;;;25.70;1.00;;;;;;5023077;28;20655;-73
2023/03/03 12:23:34;;;;;;;39.27;28.97;;;25.60;1.00;;;;;;5031167;28;20624;-73
2023/03/03 12:26:15;;;;;;;40.07;27.67;;;25.10;1.00;;;;;;5029254;28;20423;-73
2023/03/03 12:28:51;;;;;;;34.17;26.60;;;25.30;1.00;;;;;;5033200;28;20194;-73
2023/03/03 12:31:38;;;;;;;42.37;27.87;;;25.80;1.00;;;;;;5027370;28;20240;-73
2023/03/03 12:34:13;;;;;;;37.50;27.17;;;24.50;1.00;;;;;;5027227;28;20502;-72
2023/03/03 12:36:53;;;;;;;37.03;28.50;;;24.00;1.00;;;;;;5022831;28;20525;-73
2023/03/03 12:40:07;;;;;;;35.20;27.40;;;24.20;1.00;;;;;;5038052;28;20494;-72
2023/03/03 12:42:51;;;;;;;36.17;27.50;;;24.40;1.00;;;;;;5037226;28;20865;-73
2023/03/03 12:45:52;;;;;;;34.57;27.10;;;25.40;1.00;;;;;;5029608;28;20431;-72
2023/03/03 12:48:33;;;;;;;34.90;27.30;;;26.50;1.00;;;;;;5041404;28;20501;-70
2023/03/03 12:51:21;;;;;;;37.07;27.63;;;26.90;1.00;;;;;;5028929;28;20683;-72
2023/03/03 12:54:07;;;;;;;38.40;28.87;;;25.90;1.00;;;;;;5031015;28;20189;-73
2023/03/03 12:56:55;;;;;;;36.53;28.00;;;25.50;1.00;;;;;;5034070;28;20268;-73
2023/03/03 12:59:55;;;;;;;39.20;28.87;;;25.70;1.00;;;;;;5033955;28;20208;-73
2023/03/03 13:02:55;;;;;;;38.27;27.50;;;25.60;1.00;;;;;;5036700;28;20451;-72
2023/03/03 13:05:24;;;;;;;37.27;27.90;;;25.40;1.00;;;;;;5038768;28;20193;-72
2023/03/03 13:08:13;;;;;;;37.07;27.80;;;26.60;1.00;;;;;;5032609;28;20189;-72
2023/03/03 13:10:49;;;;;;;38.27;29.77;;;26.90;1.00;;;;;;5030468;28;20173;-72
2023/03/03 13:13:27;;;;;;;34.77;27.93;;;27.00;1.00;;;;;;5044746;28;20539;-72
2023/03/03 13:16:20;;;;;;;37.83;27.90;;;26.70;1.00;;;;;;5037240;28;20543;-73